Aérodrome :
LOGIN :

S'inscrire | Disclaimer

   EN    FR    IT 

 










Légende :    VFR   VFR Marginal   IFR   IFR Intensif   IFR Très Intensif
Visi : 
Plafond : 
>= 8 km
>= 3000ft
5 à 8 km
1000 à 3000 ft
1500m à 5 km
500 à 1000 ft
800 à 1500m
200 à 500 ft
< 800m
< 200 ft
Symboles :   Orages  Brouillard  Fortes neiges  Fortes précipitations  Vent > 20 kt
SIGMETs :   Divers  Orages  Givrage  Turbulence  Onde Orograph.  Cendres Volcan.






- Altitude de l'aérodrome : 1496 ft
- Code IATA : SBZ


LRSB - Sibiu

DERNIER METAR :
  • 101600Z 23003KT CAVOK 01/M00 Q1014 NOSIG

METARs EXPIRÉS :
  • 101530Z 22002KT 9000 NSC 02/M01 Q1014 NOSIG
  • 101500Z 13003KT 9000 NSC 04/M01 Q1014 NOSIG
  • 101430Z 09004KT CAVOK 04/M00 Q1014 NOSIG
  • 101400Z 13002KT CAVOK 06/M00 Q1013 NOSIG
  • 101330Z 14002KT CAVOK 07/M00 Q1013 NOSIG

TAF TAF LRSB
Valide du 10 à 12h jusqu'au 11 à 12h UTC


101100Z 1012/1112 VRB04KT CAVOK
BECMG 1018/1020 3000 BR
BECMG 1020/1022 1500 BR BKN005
BECMG 1022/1024 0600 FZFG OVC002
TEMPO 1100/1106 0300 FZFG VV001
BECMG 1107/1109 3000 BR BKN010
BECMG 1109/1111 9999 BKN030



MET'MAP, la Météo Aéronautique d'un coup d'oeil ! - Copyright ORBIFLY Décembre 2007 - Disclaimer

ORBIFLY MET'MAP TEAM :

Programmation & Développement : Alexandra Zaïnal
Sur une idée originale de : Baudouin d'Aumeries
Assistance à la programmation : Marc-Olivier Méhu
Soutien technique & logistique : Manuel Goepfert

Contact : metmap@orbifly.com




SOURCES & CREDITS :

   NOAA